createdAt,value
2018-12-06T00:01:56.780Z,53.93
2018-12-06T00:04:28.213Z,53.28
2018-12-06T00:06:58.982Z,53.26
2018-12-06T00:09:29.576Z,55.23
2018-12-06T00:12:00.222Z,55.73
2018-12-06T00:14:30.852Z,55.57
2018-12-06T00:17:01.566Z,62.45
2018-12-06T00:19:32.077Z,55.89
2018-12-06T00:22:03.069Z,57.56
2018-12-06T00:24:34.047Z,55.49
2018-12-06T00:27:04.911Z,55.67
2018-12-06T00:29:35.310Z,55.57
2018-12-06T00:36:07.858Z,55.46
2018-12-06T00:38:38.235Z,55.75
2018-12-06T00:41:08.567Z,57.31
2018-12-06T00:43:38.966Z,56.43
2018-12-06T00:46:09.507Z,56.87
2018-12-06T00:48:40.181Z,58.91
2018-12-06T00:51:11.000Z,57.86
2018-12-06T00:53:42.012Z,57.63
2018-12-06T00:56:12.638Z,58.85
2018-12-06T00:58:43.317Z,57.89
2018-12-06T01:01:14.026Z,55.70
2018-12-06T01:03:44.944Z,55.86
2018-12-06T01:06:15.711Z,56.53
2018-12-06T01:08:46.471Z,55.63
2018-12-06T01:11:16.658Z,55.07
2018-12-06T01:13:47.488Z,54.70
2018-12-06T01:16:18.026Z,55.05
2018-12-06T01:18:49.188Z,54.45
2018-12-06T01:21:19.071Z,55.10
2018-12-06T01:23:50.088Z,55.03
2018-12-06T01:26:21.025Z,55.56
2018-12-06T01:28:52.087Z,54.10
2018-12-06T01:31:23.161Z,54.06
2018-12-06T01:33:54.700Z,55.78
2018-12-06T01:36:25.497Z,56.34
2018-12-06T01:38:56.874Z,54.70
2018-12-06T01:41:28.162Z,55.02
2018-12-06T01:43:58.890Z,55.32
2018-12-06T01:46:29.612Z,55.41
2018-12-06T01:49:00.340Z,55.06
2018-12-06T01:51:31.374Z,56.72
2018-12-06T01:54:02.329Z,56.64
2018-12-06T01:56:33.080Z,58.04
2018-12-06T01:59:03.538Z,59.30
2018-12-06T02:01:34.337Z,57.08
2018-12-06T02:04:05.674Z,57.11
2018-12-06T02:06:36.255Z,56.72
2018-12-06T02:09:10.825Z,56.74
2018-12-06T02:11:41.877Z,56.82
2018-12-06T02:14:13.624Z,56.88
2018-12-06T02:16:44.690Z,58.19
2018-12-06T02:19:14.973Z,58.84
2018-12-06T02:21:45.385Z,56.05
2018-12-06T02:24:17.273Z,55.47
2018-12-06T02:26:47.807Z,55.45
2018-12-06T02:29:18.157Z,54.72
2018-12-06T02:31:49.083Z,54.46
2018-12-06T02:34:19.798Z,54.79
2018-12-06T02:36:50.432Z,56.86
2018-12-06T02:39:20.992Z,56.83
2018-12-06T02:41:52.509Z,56.45
2018-12-06T02:44:23.250Z,56.23
2018-12-06T02:46:55.209Z,55.65
2018-12-06T02:49:25.819Z,56.81
2018-12-06T02:51:56.986Z,56.25
2018-12-06T02:54:28.615Z,56.68
2018-12-06T02:56:59.324Z,56.08
2018-12-06T02:59:30.465Z,60.95
2018-12-06T03:02:01.217Z,57.45
2018-12-06T03:04:33.179Z,60.43
2018-12-06T03:07:03.940Z,56.29
2018-12-06T03:09:34.511Z,56.25
2018-12-06T03:12:05.572Z,54.60
2018-12-06T03:14:36.688Z,53.99
2018-12-06T03:17:07.496Z,54.80
2018-12-06T03:19:37.971Z,55.28
2018-12-06T03:22:09.196Z,54.41
2018-12-06T03:24:40.683Z,56.38
2018-12-06T03:27:11.626Z,55.63
2018-12-06T03:29:42.071Z,56.64
2018-12-06T03:32:13.210Z,55.32
2018-12-06T03:34:43.925Z,55.16
2018-12-06T03:37:14.531Z,56.79
2018-12-06T03:39:45.167Z,55.95
2018-12-06T03:42:15.704Z,56.07
2018-12-06T03:44:49.588Z,57.07
2018-12-06T03:47:20.685Z,58.24
2018-12-06T03:49:51.977Z,57.79
2018-12-06T03:52:23.218Z,58.30
2018-12-06T03:54:54.115Z,58.70
2018-12-06T03:57:24.716Z,57.37
2018-12-06T03:59:55.412Z,56.73
2018-12-06T04:02:26.743Z,57.14
2018-12-06T04:04:57.350Z,57.79
2018-12-06T04:07:28.280Z,57.54
2018-12-06T04:09:58.949Z,57.73
2018-12-06T04:12:29.019Z,57.58
2018-12-06T04:14:59.055Z,57.01
2018-12-06T04:17:28.688Z,56.04
2018-12-06T04:19:58.587Z,58.16
2018-12-06T04:22:28.545Z,57.57
2018-12-06T04:24:58.396Z,57.14
2018-12-06T04:27:28.419Z,57.33
2018-12-06T04:29:58.241Z,57.61
2018-12-06T04:32:28.190Z,58.50
2018-12-06T04:34:57.984Z,58.17
2018-12-06T04:37:27.926Z,58.00
2018-12-06T04:39:57.825Z,58.46
2018-12-06T04:42:27.483Z,57.93
2018-12-06T04:44:58.429Z,58.02
2018-12-06T04:47:28.267Z,57.51
2018-12-06T04:49:58.187Z,58.39
2018-12-06T04:52:28.181Z,58.70
2018-12-06T04:54:59.021Z,58.97
2018-12-06T04:57:28.837Z,57.56
2018-12-06T04:59:58.702Z,57.88
2018-12-06T05:02:28.644Z,57.89
2018-12-06T05:04:58.793Z,57.36
2018-12-06T05:07:28.612Z,57.56
2018-12-06T05:09:58.486Z,57.88
2018-12-06T05:12:28.618Z,59.80
2018-12-06T05:14:58.337Z,61.51
2018-12-06T05:17:28.261Z,61.65
2018-12-06T05:19:58.265Z,60.72
2018-12-06T05:22:28.250Z,61.42
2018-12-06T05:24:58.155Z,60.20
2018-12-06T05:27:28.095Z,60.26
2018-12-06T05:29:57.943Z,59.14
2018-12-06T05:32:27.836Z,59.23
2018-12-06T05:34:57.741Z,60.00
2018-12-06T05:37:27.644Z,58.42
2018-12-06T05:39:57.589Z,58.33
2018-12-06T05:42:27.502Z,57.52
2018-12-06T05:44:57.320Z,57.94
2018-12-06T05:47:27.254Z,57.44
2018-12-06T05:49:57.182Z,58.52
2018-12-06T05:52:27.273Z,57.70
2018-12-06T05:54:57.164Z,57.41
2018-12-06T05:57:27.117Z,57.43
2018-12-06T05:59:56.994Z,58.70
2018-12-06T06:02:26.947Z,58.22
2018-12-06T06:04:56.855Z,58.49
2018-12-06T06:07:26.803Z,60.03
2018-12-06T06:09:56.778Z,60.15
2018-12-06T06:12:27.311Z,60.31
2018-12-06T06:14:58.811Z,61.14
2018-12-06T06:17:29.258Z,60.11
2018-12-06T06:19:59.752Z,59.81
2018-12-06T06:22:30.308Z,57.34
2018-12-06T06:25:01.662Z,56.92
2018-12-06T06:27:32.269Z,56.72
2018-12-06T06:30:02.928Z,55.23
2018-12-06T06:32:33.736Z,54.40
2018-12-06T06:35:05.189Z,54.47
2018-12-06T06:37:35.801Z,52.69
2018-12-06T06:40:06.455Z,52.12
2018-12-06T06:42:37.097Z,51.37
2018-12-06T06:45:08.629Z,51.08
2018-12-06T06:47:39.239Z,51.28
2018-12-06T06:50:09.788Z,49.90
2018-12-06T06:52:40.342Z,49.84
2018-12-06T06:55:11.442Z,48.18
2018-12-06T06:57:42.096Z,47.22
2018-12-06T07:00:12.693Z,46.27
2018-12-06T07:02:43.033Z,46.28
2018-12-06T07:05:13.375Z,45.43
2018-12-06T07:07:43.181Z,45.00
2018-12-06T07:10:13.145Z,43.42
2018-12-06T07:12:43.013Z,42.02
2018-12-06T07:15:13.068Z,42.19
2018-12-06T07:17:42.961Z,43.27
2018-12-06T07:20:12.856Z,42.12
2018-12-06T07:22:42.743Z,41.58
2018-12-06T07:25:12.708Z,41.08
2018-12-06T07:27:42.551Z,40.73
2018-12-06T07:30:12.732Z,40.04
2018-12-06T07:32:42.997Z,40.20
2018-12-06T07:35:13.561Z,39.99
2018-12-06T07:37:43.438Z,38.10
2018-12-06T07:40:13.418Z,37.26
2018-12-06T07:42:43.217Z,37.81
2018-12-06T07:45:13.020Z,38.95
2018-12-06T07:47:42.978Z,39.00
2018-12-06T07:50:12.823Z,38.37
2018-12-06T07:52:42.721Z,38.34
2018-12-06T07:55:12.660Z,38.03
2018-12-06T07:57:42.436Z,35.98
2018-12-06T08:00:12.442Z,34.72
2018-12-06T08:02:42.285Z,33.70
2018-12-06T08:05:12.178Z,34.20
2018-12-06T08:07:42.009Z,32.57
2018-12-06T08:10:11.908Z,33.19
2018-12-06T08:12:41.776Z,33.81
2018-12-06T08:15:11.707Z,33.00
2018-12-06T08:17:41.748Z,32.30
2018-12-06T08:20:11.697Z,31.04
2018-12-06T08:22:41.560Z,31.79
2018-12-06T08:25:11.444Z,30.47
2018-12-06T08:27:41.377Z,29.84
2018-12-06T08:30:11.426Z,29.83
2018-12-06T08:32:41.268Z,30.04
2018-12-06T08:35:11.066Z,30.48
2018-12-06T08:37:40.897Z,29.86
2018-12-06T08:40:10.870Z,28.86
2018-12-06T08:42:45.605Z,28.77
2018-12-06T08:45:13.610Z,27.93
2018-12-06T08:47:43.442Z,26.68
2018-12-06T08:50:13.335Z,28.18
2018-12-06T08:52:43.233Z,29.47
2018-12-06T08:55:13.463Z,31.39
2018-12-06T08:57:43.318Z,30.95
2018-12-06T09:00:13.792Z,30.27
2018-12-06T09:02:43.665Z,30.91
2018-12-06T09:05:14.083Z,30.56
2018-12-06T09:07:44.022Z,29.87
2018-12-06T09:10:13.953Z,28.60
2018-12-06T09:12:43.812Z,27.96
2018-12-06T09:15:13.753Z,29.20
2018-12-06T09:17:43.927Z,30.02
2018-12-06T09:20:13.702Z,29.86
2018-12-06T09:22:43.664Z,28.01
2018-12-06T09:25:20.816Z,29.20
2018-12-06T09:27:45.573Z,29.34
2018-12-06T09:30:15.478Z,29.41
2018-12-06T09:32:45.324Z,29.55
2018-12-06T09:35:16.311Z,28.51
2018-12-06T09:37:46.265Z,25.97
2018-12-06T09:40:16.237Z,26.73
2018-12-06T09:42:46.172Z,26.27
2018-12-06T09:45:17.029Z,25.94
2018-12-06T09:47:46.912Z,25.83
2018-12-06T09:50:16.894Z,24.73
2018-12-06T09:52:46.850Z,24.26
2018-12-06T09:55:17.917Z,25.16
2018-12-06T09:57:47.816Z,23.96
2018-12-06T10:00:18.705Z,23.74
2018-12-06T10:02:48.593Z,24.03
2018-12-06T10:05:18.708Z,22.73
2018-12-06T10:07:48.884Z,20.84
2018-12-06T10:10:18.816Z,21.47
2018-12-06T10:12:48.837Z,19.99
2018-12-06T10:15:19.393Z,20.37
2018-12-06T10:17:49.538Z,18.80
2018-12-06T10:20:19.417Z,18.85
2018-12-06T10:22:49.302Z,18.47
2018-12-06T10:25:19.729Z,16.05
2018-12-06T10:27:49.582Z,15.76
2018-12-06T10:30:19.502Z,17.13
2018-12-06T10:32:49.413Z,15.99
2018-12-06T10:35:19.348Z,16.52
2018-12-06T10:37:49.254Z,17.24
2018-12-06T10:40:19.164Z,18.52
2018-12-06T10:42:49.109Z,17.32
2018-12-06T10:45:19.044Z,18.14
2018-12-06T10:47:48.901Z,17.04
2018-12-06T10:50:18.755Z,16.83
2018-12-06T10:52:48.566Z,15.80
2018-12-06T10:55:18.421Z,15.95
2018-12-06T10:57:48.305Z,16.49
2018-12-06T11:00:23.049Z,15.13
2018-12-06T11:02:56.931Z,16.14
2018-12-06T11:05:27.430Z,16.63
2018-12-06T11:07:57.291Z,16.86
2018-12-06T11:10:27.182Z,16.19
2018-12-06T11:12:57.054Z,15.91
2018-12-06T11:15:26.874Z,15.79
2018-12-06T11:17:56.988Z,16.16
2018-12-06T11:20:26.919Z,15.31
2018-12-06T11:22:56.864Z,15.56
2018-12-06T11:25:26.783Z,17.34
2018-12-06T11:27:56.644Z,16.36
2018-12-06T11:30:26.857Z,16.73
2018-12-06T11:32:56.841Z,15.57
2018-12-06T11:35:26.869Z,14.56
2018-12-06T11:37:56.878Z,16.08
2018-12-06T11:40:26.888Z,15.75
2018-12-06T11:42:56.858Z,17.71
2018-12-06T11:45:26.732Z,16.29
2018-12-06T11:47:56.668Z,17.04
2018-12-06T11:50:26.657Z,16.25
2018-12-06T11:52:56.428Z,15.82
2018-12-06T11:55:26.424Z,14.95
2018-12-06T11:57:56.260Z,14.71
2018-12-06T12:00:26.291Z,17.43
2018-12-06T12:02:56.159Z,16.92
2018-12-06T12:05:26.127Z,15.50
2018-12-06T12:07:56.074Z,17.48
2018-12-06T12:10:25.982Z,17.99
2018-12-06T12:12:55.910Z,17.40
2018-12-06T12:15:25.835Z,16.63
2018-12-06T12:17:55.810Z,17.10
2018-12-06T12:20:25.980Z,19.46
2018-12-06T12:22:55.852Z,18.05
2018-12-06T12:25:25.734Z,18.79
2018-12-06T12:27:56.594Z,17.29
2018-12-06T12:30:26.416Z,17.18
2018-12-06T12:32:56.435Z,18.07
2018-12-06T12:35:26.873Z,16.54
2018-12-06T12:37:56.764Z,16.07
2018-12-06T12:40:26.658Z,17.79
2018-12-06T12:42:56.572Z,17.22
2018-12-06T12:45:26.353Z,17.91
2018-12-06T12:47:56.308Z,16.82
2018-12-06T12:50:26.181Z,16.95
2018-12-06T12:52:56.063Z,15.51
2018-12-06T12:55:25.883Z,18.06
2018-12-06T12:57:55.755Z,16.99
2018-12-06T13:00:25.840Z,19.24
2018-12-06T13:02:55.632Z,16.58
2018-12-06T13:05:25.512Z,16.11
2018-12-06T13:07:55.418Z,16.00
2018-12-06T13:10:25.219Z,16.49
2018-12-06T13:12:55.097Z,14.12
2018-12-06T13:15:24.924Z,16.06
2018-12-06T13:17:54.844Z,15.68
2018-12-06T13:20:24.748Z,16.38
2018-12-06T13:22:54.792Z,18.13
2018-12-06T13:25:24.598Z,18.27
2018-12-06T13:27:54.579Z,16.68
2018-12-06T13:30:24.541Z,17.06
2018-12-06T13:32:54.471Z,17.57
2018-12-06T13:35:24.459Z,15.67
2018-12-06T13:37:54.330Z,18.69
2018-12-06T13:40:24.275Z,16.44
2018-12-06T13:42:54.144Z,17.65
2018-12-06T13:45:24.029Z,17.93
2018-12-06T13:47:53.877Z,17.32
2018-12-06T13:50:23.822Z,17.56
2018-12-06T13:52:53.828Z,17.65
2018-12-06T13:55:23.623Z,18.28
2018-12-06T13:57:53.529Z,19.29
2018-12-06T14:00:23.446Z,19.81
2018-12-06T14:02:53.416Z,20.56
2018-12-06T14:05:23.244Z,20.54
2018-12-06T14:07:53.055Z,22.70
2018-12-06T14:10:22.982Z,24.19
2018-12-06T14:12:52.801Z,26.21
2018-12-06T14:15:22.590Z,28.05
2018-12-06T14:17:52.499Z,29.18
2018-12-06T14:20:22.389Z,30.16
2018-12-06T14:22:52.249Z,30.98
2018-12-06T14:25:22.504Z,30.58
2018-12-06T14:27:52.360Z,30.18
2018-12-06T14:30:22.252Z,30.45
2018-12-06T14:32:52.067Z,31.27
2018-12-06T14:35:22.547Z,31.54
2018-12-06T14:37:52.477Z,32.92
2018-12-06T14:40:22.403Z,33.79
2018-12-06T14:42:52.359Z,34.26
2018-12-06T14:45:22.332Z,34.43
2018-12-06T14:47:52.214Z,34.64
2018-12-06T14:50:22.154Z,34.52
2018-12-06T14:52:52.072Z,32.88
2018-12-06T14:55:21.987Z,32.61
2018-12-06T14:57:51.741Z,32.36
2018-12-06T15:00:21.612Z,31.82
2018-12-06T15:02:51.476Z,32.10
2018-12-06T15:05:21.289Z,32.85
2018-12-06T15:07:51.199Z,32.21
2018-12-06T15:10:21.040Z,32.47
2018-12-06T15:12:50.728Z,32.54
2018-12-06T15:15:20.625Z,32.04
2018-12-06T15:17:50.365Z,32.93
2018-12-06T15:20:20.247Z,32.91
2018-12-06T15:22:50.092Z,33.05
2018-12-06T15:25:20.072Z,32.51
2018-12-06T15:27:50.599Z,33.25
2018-12-06T15:30:20.273Z,33.79
2018-12-06T15:32:50.197Z,33.52
2018-12-06T15:35:20.456Z,33.67
2018-12-06T15:37:50.344Z,36.42
2018-12-06T15:40:20.271Z,34.97
2018-12-06T15:42:50.253Z,32.89
2018-12-06T15:45:20.148Z,35.48
2018-12-06T15:47:49.976Z,37.40
2018-12-06T15:50:19.856Z,38.15
2018-12-06T15:52:49.682Z,39.13
2018-12-06T15:55:19.621Z,39.59
2018-12-06T15:57:49.621Z,39.83
2018-12-06T16:00:19.571Z,40.73
2018-12-06T16:02:49.485Z,40.78
2018-12-06T16:05:19.305Z,40.87
2018-12-06T16:07:49.060Z,40.72
2018-12-06T16:10:18.945Z,40.51
2018-12-06T16:12:48.792Z,39.93
2018-12-06T16:15:18.702Z,39.02
2018-12-06T16:17:48.735Z,38.13
2018-12-06T16:20:18.562Z,40.38
2018-12-06T16:22:48.285Z,40.65
2018-12-06T16:25:18.156Z,40.65
2018-12-06T16:27:48.066Z,40.53
2018-12-06T16:30:18.188Z,40.86
2018-12-06T16:32:48.240Z,40.65
2018-12-06T16:35:18.201Z,40.33
2018-12-06T16:37:48.179Z,39.71
2018-12-06T16:40:18.188Z,41.04
2018-12-06T16:42:48.076Z,40.80
2018-12-06T16:45:18.017Z,40.32
2018-12-06T16:47:48.030Z,39.72
2018-12-06T16:50:18.079Z,39.36
2018-12-06T16:52:48.029Z,39.28
2018-12-06T16:55:17.978Z,39.27
2018-12-06T16:57:47.894Z,38.92
2018-12-06T17:00:17.946Z,39.27
2018-12-06T17:02:47.942Z,39.42
2018-12-06T17:05:17.927Z,38.89
2018-12-06T17:07:47.829Z,39.53
2018-12-06T17:10:17.808Z,39.44
2018-12-06T17:12:47.798Z,39.22
2018-12-06T17:15:17.729Z,39.94
2018-12-06T17:17:47.573Z,39.65
2018-12-06T17:20:17.507Z,40.58
2018-12-06T17:22:47.439Z,42.33
2018-12-06T17:25:17.368Z,41.45
2018-12-06T17:27:47.259Z,41.88
2018-12-06T17:30:17.682Z,44.64
2018-12-06T17:32:48.379Z,42.43
2018-12-06T17:35:18.672Z,42.39
2018-12-06T17:37:48.670Z,43.38
2018-12-06T17:40:18.589Z,43.31
2018-12-06T17:42:48.593Z,42.69
2018-12-06T17:45:19.311Z,44.23
2018-12-06T17:47:49.295Z,41.62
2018-12-06T17:50:19.237Z,43.01
2018-12-06T17:52:49.402Z,45.30
2018-12-06T17:55:20.080Z,46.49
2018-12-06T17:57:50.045Z,47.60
2018-12-06T18:00:20.011Z,48.38
2018-12-06T18:02:49.980Z,46.86
2018-12-06T18:05:20.780Z,45.46
2018-12-06T18:07:50.830Z,45.54
2018-12-06T18:10:20.970Z,46.64
2018-12-06T18:12:50.965Z,45.26
2018-12-06T18:15:21.836Z,46.35
2018-12-06T18:17:51.766Z,45.18
2018-12-06T18:20:21.656Z,45.98
2018-12-06T18:22:51.649Z,46.10
2018-12-06T18:25:21.905Z,45.25
2018-12-06T18:27:51.853Z,46.62
2018-12-06T18:30:21.720Z,47.83
2018-12-06T18:32:52.089Z,47.31
2018-12-06T18:35:22.539Z,47.19
2018-12-06T18:37:52.512Z,46.63
2018-12-06T18:40:22.520Z,45.74
2018-12-06T18:42:52.413Z,46.11
2018-12-06T18:45:23.257Z,45.10
2018-12-06T18:47:53.138Z,44.71
2018-12-06T18:50:23.036Z,44.20
2018-12-06T18:52:53.005Z,45.10
2018-12-06T18:55:23.909Z,44.32
2018-12-06T18:57:54.134Z,43.89
2018-12-06T19:00:24.802Z,44.49
2018-12-06T19:02:55.273Z,44.02
2018-12-06T19:05:26.931Z,44.82
2018-12-06T19:07:56.861Z,44.84
2018-12-06T19:10:26.853Z,44.36
2018-12-06T19:12:56.786Z,43.46
2018-12-06T19:15:26.696Z,43.56
2018-12-06T19:17:56.628Z,44.28
2018-12-06T19:20:26.545Z,44.21
2018-12-06T19:22:56.455Z,44.88
2018-12-06T19:25:26.484Z,46.16
2018-12-06T19:27:56.532Z,46.03
2018-12-06T19:30:26.327Z,45.67
2018-12-06T19:32:59.363Z,46.36
2018-12-06T19:35:30.138Z,46.23
2018-12-06T19:38:01.018Z,45.79
2018-12-06T19:40:30.929Z,46.39
2018-12-06T19:43:01.652Z,46.77
2018-12-06T19:45:31.688Z,46.87
2018-12-06T19:48:01.620Z,46.95
2018-12-06T19:50:31.592Z,46.94
2018-12-06T19:53:01.714Z,47.45
2018-12-06T19:55:31.629Z,47.95
2018-12-06T19:58:01.599Z,47.73
2018-12-06T20:00:31.570Z,47.34
2018-12-06T20:03:01.420Z,47.21
2018-12-06T20:05:31.325Z,48.08
2018-12-06T20:08:01.325Z,48.39
2018-12-06T20:10:31.425Z,48.38
2018-12-06T20:13:01.507Z,47.38
2018-12-06T20:15:31.457Z,50.55
2018-12-06T20:18:01.383Z,51.02
2018-12-06T20:20:31.336Z,50.69
2018-12-06T20:23:01.259Z,49.76
2018-12-06T20:25:31.260Z,50.03
2018-12-06T20:28:01.179Z,50.07
2018-12-06T20:30:31.090Z,49.19
2018-12-06T20:33:01.470Z,49.06
2018-12-06T20:35:32.114Z,48.50
2018-12-06T20:38:01.981Z,48.34
2018-12-06T20:40:31.839Z,48.23
2018-12-06T20:43:01.671Z,49.47
2018-12-06T20:45:31.564Z,49.49
2018-12-06T20:48:01.481Z,49.85
2018-12-06T20:50:32.246Z,49.04
2018-12-06T20:53:02.625Z,49.58
2018-12-06T20:55:33.411Z,50.26
2018-12-06T20:58:03.256Z,50.01
2018-12-06T21:00:33.155Z,48.78
2018-12-06T21:03:03.113Z,48.37
2018-12-06T21:05:33.286Z,48.87
2018-12-06T21:08:03.183Z,48.71
2018-12-06T21:10:33.045Z,49.44
2018-12-06T21:13:02.892Z,49.09
2018-12-06T21:15:32.763Z,49.03
2018-12-06T21:18:02.600Z,49.15
2018-12-06T21:20:32.505Z,49.52
2018-12-06T21:23:02.372Z,49.02
2018-12-06T21:25:32.297Z,49.90
2018-12-06T21:28:02.155Z,49.46
2018-12-06T21:30:31.980Z,48.56
2018-12-06T21:33:01.881Z,48.28
2018-12-06T21:35:32.204Z,48.20
2018-12-06T21:38:02.177Z,48.62
2018-12-06T21:40:32.310Z,48.61
2018-12-06T21:43:02.151Z,49.42
2018-12-06T21:45:33.609Z,48.42
2018-12-06T21:48:03.812Z,48.16
2018-12-06T21:50:33.789Z,48.63
2018-12-06T21:53:03.725Z,47.87
2018-12-06T21:55:33.884Z,48.14
2018-12-06T21:58:03.883Z,48.34
2018-12-06T22:00:33.769Z,48.41
2018-12-06T22:03:03.833Z,48.89
2018-12-06T22:05:33.703Z,49.28
2018-12-06T22:08:03.612Z,48.77
2018-12-06T22:10:33.473Z,48.54
2018-12-06T22:13:03.469Z,49.11
2018-12-06T22:15:33.382Z,49.03
2018-12-06T22:18:03.233Z,48.66
2018-12-06T22:20:33.028Z,49.37
2018-12-06T22:23:03.241Z,49.03
2018-12-06T22:25:33.130Z,49.85
2018-12-06T22:28:03.008Z,52.48
2018-12-06T22:30:32.929Z,55.66
2018-12-06T22:33:02.737Z,55.45
2018-12-06T22:35:32.532Z,54.19
2018-12-06T22:38:02.745Z,54.58
2018-12-06T22:40:32.581Z,54.41
2018-12-06T22:43:02.395Z,53.94
2018-12-06T22:46:03.010Z,55.02
2018-12-06T22:48:32.827Z,53.65
2018-12-06T22:51:02.666Z,53.75
2018-12-06T22:53:32.532Z,52.48
2018-12-06T22:56:02.405Z,52.12
2018-12-06T22:58:32.243Z,51.08
2018-12-06T23:01:03.992Z,53.31
2018-12-06T23:03:34.625Z,51.58
2018-12-06T23:06:04.699Z,51.57
2018-12-06T23:08:34.555Z,50.03
2018-12-06T23:11:04.305Z,50.73
2018-12-06T23:13:34.959Z,50.66
2018-12-06T23:16:04.813Z,50.40
2018-12-06T23:18:34.550Z,49.21
2018-12-06T23:21:04.477Z,49.18
2018-12-06T23:23:34.366Z,49.29
2018-12-06T23:26:04.247Z,50.02
2018-12-06T23:28:34.062Z,49.44
2018-12-06T23:31:03.941Z,49.79
2018-12-06T23:33:33.769Z,49.45
2018-12-06T23:36:03.776Z,49.65
2018-12-06T23:38:33.948Z,50.16
2018-12-06T23:41:03.820Z,50.85
2018-12-06T23:43:34.672Z,51.42
2018-12-06T23:46:04.502Z,51.31
2018-12-06T23:48:34.129Z,51.26
2018-12-06T23:51:14.466Z,51.02
2018-12-06T23:53:44.621Z,51.71
2018-12-06T23:56:14.488Z,51.12
2018-12-06T23:58:44.382Z,49.91
